sensor_id;sensor_type;location;lat;lon;timestamp;P1;durP1;ratioP1;P2;durP2;ratioP2
21354;SDS011;10835;50.148;19.760;2024-02-26T00:00:02;7.93;;;3.05;;
21354;SDS011;10835;50.148;19.760;2024-02-26T00:02:35;4.78;;;2.72;;
21354;SDS011;10835;50.148;19.760;2024-02-26T01:09:10;4.72;;;2.38;;
21354;SDS011;10835;50.148;19.760;2024-02-26T01:11:39;3.63;;;1.65;;
21354;SDS011;10835;50.148;19.760;2024-02-26T01:14:07;3.08;;;1.83;;
21354;SDS011;10835;50.148;19.760;2024-02-26T01:16:36;7.15;;;3.53;;
21354;SDS011;10835;50.148;19.760;2024-02-26T01:19:04;4.25;;;2.00;;
21354;SDS011;10835;50.148;19.760;2024-02-26T01:21:33;3.03;;;1.95;;
21354;SDS011;10835;50.148;19.760;2024-02-26T01:24:01;3.53;;;1.83;;
21354;SDS011;10835;50.148;19.760;2024-02-26T01:26:31;5.50;;;2.33;;
21354;SDS011;10835;50.148;19.760;2024-02-26T01:28:59;3.90;;;2.10;;
21354;SDS011;10835;50.148;19.760;2024-02-26T01:31:28;2.00;;;1.55;;
21354;SDS011;10835;50.148;19.760;2024-02-26T01:33:56;3.47;;;1.58;;
21354;SDS011;10835;50.148;19.760;2024-02-26T01:36:25;3.35;;;2.00;;
21354;SDS011;10835;50.148;19.760;2024-02-26T01:38:54;2.92;;;1.85;;
21354;SDS011;10835;50.148;19.760;2024-02-26T01:41:22;2.50;;;1.27;;
21354;SDS011;10835;50.148;19.760;2024-02-26T01:43:52;6.35;;;2.38;;
21354;SDS011;10835;50.148;19.760;2024-02-26T01:46:20;3.70;;;1.50;;
21354;SDS011;10835;50.148;19.760;2024-02-26T01:48:49;2.58;;;1.70;;
21354;SDS011;10835;50.148;19.760;2024-02-26T01:51:18;5.63;;;2.33;;
21354;SDS011;10835;50.148;19.760;2024-02-26T01:53:47;4.30;;;2.08;;
21354;SDS011;10835;50.148;19.760;2024-02-26T01:56:16;2.97;;;2.10;;
21354;SDS011;10835;50.148;19.760;2024-02-26T01:58:46;6.30;;;1.92;;
21354;SDS011;10835;50.148;19.760;2024-02-26T02:01:17;2.25;;;1.60;;
21354;SDS011;10835;50.148;19.760;2024-02-26T02:03:49;3.45;;;2.05;;
21354;SDS011;10835;50.148;19.760;2024-02-26T02:06:18;5.20;;;2.05;;
21354;SDS011;10835;50.148;19.760;2024-02-26T02:08:47;4.00;;;1.83;;
21354;SDS011;10835;50.148;19.760;2024-02-26T02:11:16;2.47;;;1.50;;
21354;SDS011;10835;50.148;19.760;2024-02-26T02:13:45;2.25;;;1.35;;
21354;SDS011;10835;50.148;19.760;2024-02-26T02:16:13;2.50;;;1.48;;
21354;SDS011;10835;50.148;19.760;2024-02-26T02:18:43;2.58;;;1.45;;
21354;SDS011;10835;50.148;19.760;2024-02-26T02:21:13;2.20;;;1.38;;
21354;SDS011;10835;50.148;19.760;2024-02-26T02:23:41;5.78;;;1.48;;
21354;SDS011;10835;50.148;19.760;2024-02-26T02:26:13;5.57;;;1.40;;
21354;SDS011;10835;50.148;19.760;2024-02-26T02:28:42;4.05;;;1.75;;
21354;SDS011;10835;50.148;19.760;2024-02-26T02:31:12;3.92;;;1.33;;
21354;SDS011;10835;50.148;19.760;2024-02-26T02:33:40;3.40;;;1.55;;
21354;SDS011;10835;50.148;19.760;2024-02-26T02:36:09;2.47;;;1.40;;
21354;SDS011;10835;50.148;19.760;2024-02-26T02:38:41;4.28;;;1.77;;
21354;SDS011;10835;50.148;19.760;2024-02-26T02:41:17;3.38;;;1.80;;
21354;SDS011;10835;50.148;19.760;2024-02-26T02:43:46;3.17;;;1.98;;
21354;SDS011;10835;50.148;19.760;2024-02-26T02:46:14;4.68;;;2.35;;
21354;SDS011;10835;50.148;19.760;2024-02-26T02:48:42;5.78;;;2.47;;
21354;SDS011;10835;50.148;19.760;2024-02-26T02:51:11;4.72;;;2.33;;
21354;SDS011;10835;50.148;19.760;2024-02-26T02:53:41;4.45;;;2.55;;
21354;SDS011;10835;50.148;19.760;2024-02-26T02:56:10;4.18;;;2.78;;
21354;SDS011;10835;50.148;19.760;2024-02-26T02:58:39;10.68;;;3.88;;
21354;SDS011;10835;50.148;19.760;2024-02-26T03:01:07;5.78;;;3.00;;
21354;SDS011;10835;50.148;19.760;2024-02-26T03:03:36;9.82;;;4.35;;
21354;SDS011;10835;50.148;19.760;2024-02-26T03:06:04;13.35;;;4.57;;
21354;SDS011;10835;50.148;19.760;2024-02-26T03:08:33;7.20;;;3.70;;
21354;SDS011;10835;50.148;19.760;2024-02-26T03:11:06;13.75;;;5.60;;
21354;SDS011;10835;50.148;19.760;2024-02-26T03:13:34;9.13;;;4.20;;
21354;SDS011;10835;50.148;19.760;2024-02-26T03:16:04;16.42;;;5.57;;
21354;SDS011;10835;50.148;19.760;2024-02-26T03:18:33;30.95;;;11.75;;
21354;SDS011;10835;50.148;19.760;2024-02-26T03:21:02;20.67;;;6.50;;
21354;SDS011;10835;50.148;19.760;2024-02-26T03:23:31;10.20;;;5.65;;
21354;SDS011;10835;50.148;19.760;2024-02-26T03:26:03;12.55;;;5.70;;
21354;SDS011;10835;50.148;19.760;2024-02-26T03:28:33;29.25;;;12.38;;
21354;SDS011;10835;50.148;19.760;2024-02-26T03:31:01;21.33;;;6.63;;
21354;SDS011;10835;50.148;19.760;2024-02-26T03:33:30;17.50;;;5.07;;
21354;SDS011;10835;50.148;19.760;2024-02-26T03:35:59;6.47;;;4.20;;
21354;SDS011;10835;50.148;19.760;2024-02-26T03:38:28;43.00;;;15.77;;
21354;SDS011;10835;50.148;19.760;2024-02-26T03:40:56;9.77;;;6.13;;
21354;SDS011;10835;50.148;19.760;2024-02-26T03:43:25;7.30;;;3.70;;
21354;SDS011;10835;50.148;19.760;2024-02-26T03:45:55;6.90;;;3.70;;
21354;SDS011;10835;50.148;19.760;2024-02-26T03:48:23;10.45;;;3.60;;
21354;SDS011;10835;50.148;19.760;2024-02-26T03:50:52;7.13;;;2.67;;
21354;SDS011;10835;50.148;19.760;2024-02-26T03:53:20;7.03;;;3.50;;
21354;SDS011;10835;50.148;19.760;2024-02-26T03:55:49;6.50;;;3.65;;
21354;SDS011;10835;50.148;19.760;2024-02-26T03:58:18;4.75;;;3.05;;
21354;SDS011;10835;50.148;19.760;2024-02-26T04:00:47;9.65;;;4.28;;
21354;SDS011;10835;50.148;19.760;2024-02-26T04:03:17;8.48;;;3.30;;
21354;SDS011;10835;50.148;19.760;2024-02-26T04:05:45;5.20;;;2.88;;
21354;SDS011;10835;50.148;19.760;2024-02-26T04:08:14;8.40;;;3.75;;
21354;SDS011;10835;50.148;19.760;2024-02-26T04:10:43;5.13;;;3.05;;
21354;SDS011;10835;50.148;19.760;2024-02-26T04:13:12;4.07;;;2.13;;
21354;SDS011;10835;50.148;19.760;2024-02-26T04:15:41;9.40;;;3.03;;
21354;SDS011;10835;50.148;19.760;2024-02-26T04:18:09;9.35;;;3.35;;
21354;SDS011;10835;50.148;19.760;2024-02-26T04:20:39;12.98;;;2.78;;
21354;SDS011;10835;50.148;19.760;2024-02-26T04:23:09;4.65;;;2.67;;
21354;SDS011;10835;50.148;19.760;2024-02-26T04:25:37;8.90;;;4.15;;
21354;SDS011;10835;50.148;19.760;2024-02-26T04:28:06;6.63;;;2.58;;
21354;SDS011;10835;50.148;19.760;2024-02-26T04:30:34;5.43;;;2.70;;
21354;SDS011;10835;50.148;19.760;2024-02-26T04:33:03;9.00;;;4.28;;
21354;SDS011;10835;50.148;19.760;2024-02-26T04:35:32;6.97;;;3.47;;
21354;SDS011;10835;50.148;19.760;2024-02-26T04:38:03;10.70;;;3.63;;
21354;SDS011;10835;50.148;19.760;2024-02-26T04:40:31;7.70;;;2.92;;
21354;SDS011;10835;50.148;19.760;2024-02-26T04:43:00;9.48;;;3.63;;
21354;SDS011;10835;50.148;19.760;2024-02-26T04:45:28;6.18;;;3.47;;
21354;SDS011;10835;50.148;19.760;2024-02-26T04:47:57;8.02;;;3.95;;
21354;SDS011;10835;50.148;19.760;2024-02-26T04:50:25;6.28;;;3.22;;
21354;SDS011;10835;50.148;19.760;2024-02-26T04:52:54;7.32;;;3.55;;
21354;SDS011;10835;50.148;19.760;2024-02-26T04:55:23;9.20;;;4.18;;
21354;SDS011;10835;50.148;19.760;2024-02-26T04:57:52;16.95;;;6.43;;
21354;SDS011;10835;50.148;19.760;2024-02-26T05:00:20;5.60;;;2.88;;
21354;SDS011;10835;50.148;19.760;2024-02-26T05:02:48;5.90;;;3.35;;
21354;SDS011;10835;50.148;19.760;2024-02-26T05:05:17;6.72;;;2.78;;
21354;SDS011;10835;50.148;19.760;2024-02-26T05:07:46;5.72;;;2.85;;
21354;SDS011;10835;50.148;19.760;2024-02-26T05:10:14;4.18;;;2.50;;
21354;SDS011;10835;50.148;19.760;2024-02-26T05:12:44;3.33;;;2.03;;
21354;SDS011;10835;50.148;19.760;2024-02-26T05:15:12;4.50;;;2.38;;
21354;SDS011;10835;50.148;19.760;2024-02-26T05:17:45;3.03;;;1.92;;
21354;SDS011;10835;50.148;19.760;2024-02-26T05:20:13;7.00;;;2.15;;
21354;SDS011;10835;50.148;19.760;2024-02-26T05:22:42;3.67;;;1.90;;
21354;SDS011;10835;50.148;19.760;2024-02-26T05:25:10;3.28;;;1.80;;
21354;SDS011;10835;50.148;19.760;2024-02-26T05:27:39;4.18;;;1.73;;
21354;SDS011;10835;50.148;19.760;2024-02-26T05:30:09;4.38;;;2.55;;
21354;SDS011;10835;50.148;19.760;2024-02-26T05:32:39;3.53;;;2.10;;
21354;SDS011;10835;50.148;19.760;2024-02-26T05:35:07;8.40;;;2.50;;
21354;SDS011;10835;50.148;19.760;2024-02-26T05:37:36;4.82;;;2.65;;
21354;SDS011;10835;50.148;19.760;2024-02-26T05:40:05;4.25;;;2.17;;
21354;SDS011;10835;50.148;19.760;2024-02-26T05:42:34;5.53;;;2.28;;
21354;SDS011;10835;50.148;19.760;2024-02-26T05:45:03;5.60;;;2.85;;
21354;SDS011;10835;50.148;19.760;2024-02-26T05:47:34;5.30;;;2.72;;
21354;SDS011;10835;50.148;19.760;2024-02-26T05:50:09;10.02;;;1.80;;
21354;SDS011;10835;50.148;19.760;2024-02-26T05:52:38;6.72;;;2.38;;
21354;SDS011;10835;50.148;19.760;2024-02-26T05:55:06;3.38;;;1.88;;
21354;SDS011;10835;50.148;19.760;2024-02-26T05:57:36;3.72;;;2.45;;
21354;SDS011;10835;50.148;19.760;2024-02-26T06:00:05;2.70;;;2.03;;
21354;SDS011;10835;50.148;19.760;2024-02-26T06:02:39;4.68;;;1.88;;
21354;SDS011;10835;50.148;19.760;2024-02-26T06:05:08;4.40;;;2.17;;
21354;SDS011;10835;50.148;19.760;2024-02-26T06:07:37;3.92;;;2.10;;
21354;SDS011;10835;50.148;19.760;2024-02-26T06:10:05;3.33;;;1.83;;
21354;SDS011;10835;50.148;19.760;2024-02-26T06:12:35;6.57;;;2.15;;
21354;SDS011;10835;50.148;19.760;2024-02-26T06:15:04;2.80;;;1.83;;
21354;SDS011;10835;50.148;19.760;2024-02-26T06:17:32;5.63;;;2.90;;
21354;SDS011;10835;50.148;19.760;2024-02-26T06:20:02;2.30;;;1.90;;
21354;SDS011;10835;50.148;19.760;2024-02-26T06:22:33;1.63;;;1.40;;
21354;SDS011;10835;50.148;19.760;2024-02-26T06:25:01;2.53;;;1.73;;
21354;SDS011;10835;50.148;19.760;2024-02-26T06:27:30;10.57;;;3.60;;
21354;SDS011;10835;50.148;19.760;2024-02-26T06:29:59;5.03;;;2.75;;
21354;SDS011;10835;50.148;19.760;2024-02-26T06:32:28;6.38;;;3.30;;
21354;SDS011;10835;50.148;19.760;2024-02-26T06:34:56;6.78;;;3.53;;
21354;SDS011;10835;50.148;19.760;2024-02-26T06:37:26;9.05;;;4.20;;
21354;SDS011;10835;50.148;19.760;2024-02-26T06:39:55;7.70;;;3.78;;
21354;SDS011;10835;50.148;19.760;2024-02-26T06:42:23;8.52;;;3.88;;
21354;SDS011;10835;50.148;19.760;2024-02-26T06:44:52;10.25;;;3.90;;
21354;SDS011;10835;50.148;19.760;2024-02-26T06:47:20;7.35;;;3.20;;
21354;SDS011;10835;50.148;19.760;2024-02-26T06:49:49;3.75;;;2.53;;
21354;SDS011;10835;50.148;19.760;2024-02-26T06:52:17;7.40;;;3.58;;
21354;SDS011;10835;50.148;19.760;2024-02-26T06:54:47;6.85;;;3.53;;
21354;SDS011;10835;50.148;19.760;2024-02-26T06:57:18;5.03;;;3.17;;
21354;SDS011;10835;50.148;19.760;2024-02-26T06:59:46;3.35;;;2.42;;
21354;SDS011;10835;50.148;19.760;2024-02-26T07:02:15;7.38;;;3.00;;
21354;SDS011;10835;50.148;19.760;2024-02-26T07:04:44;7.05;;;3.45;;
21354;SDS011;10835;50.148;19.760;2024-02-26T07:07:12;5.63;;;2.70;;
21354;SDS011;10835;50.148;19.760;2024-02-26T07:09:41;4.05;;;3.05;;
21354;SDS011;10835;50.148;19.760;2024-02-26T07:12:12;8.27;;;5.20;;
21354;SDS011;10835;50.148;19.760;2024-02-26T07:14:41;19.52;;;8.32;;
21354;SDS011;10835;50.148;19.760;2024-02-26T07:17:10;13.80;;;6.13;;
21354;SDS011;10835;50.148;19.760;2024-02-26T07:19:38;9.82;;;4.97;;
21354;SDS011;10835;50.148;19.760;2024-02-26T07:22:07;12.02;;;3.78;;
21354;SDS011;10835;50.148;19.760;2024-02-26T07:24:35;5.13;;;2.85;;
21354;SDS011;10835;50.148;19.760;2024-02-26T07:27:04;8.95;;;3.55;;
21354;SDS011;10835;50.148;19.760;2024-02-26T07:29:34;14.20;;;4.88;;
21354;SDS011;10835;50.148;19.760;2024-02-26T07:32:03;10.77;;;5.38;;
21354;SDS011;10835;50.148;19.760;2024-02-26T07:34:32;7.50;;;3.67;;
21354;SDS011;10835;50.148;19.760;2024-02-26T07:37:00;10.10;;;4.30;;
21354;SDS011;10835;50.148;19.760;2024-02-26T07:39:29;6.25;;;3.10;;
21354;SDS011;10835;50.148;19.760;2024-02-26T07:41:58;8.27;;;3.30;;
21354;SDS011;10835;50.148;19.760;2024-02-26T07:44:26;7.38;;;4.45;;
21354;SDS011;10835;50.148;19.760;2024-02-26T07:46:56;8.65;;;4.40;;
21354;SDS011;10835;50.148;19.760;2024-02-26T07:49:24;10.43;;;4.40;;
21354;SDS011;10835;50.148;19.760;2024-02-26T07:51:53;9.25;;;3.78;;
21354;SDS011;10835;50.148;19.760;2024-02-26T07:54:24;6.80;;;3.50;;
21354;SDS011;10835;50.148;19.760;2024-02-26T07:56:53;10.43;;;5.15;;
21354;SDS011;10835;50.148;19.760;2024-02-26T07:59:22;12.48;;;4.43;;
21354;SDS011;10835;50.148;19.760;2024-02-26T08:01:50;9.60;;;4.45;;
21354;SDS011;10835;50.148;19.760;2024-02-26T08:04:26;12.27;;;5.30;;
21354;SDS011;10835;50.148;19.760;2024-02-26T08:06:54;8.65;;;4.18;;
21354;SDS011;10835;50.148;19.760;2024-02-26T08:09:23;9.52;;;4.43;;
21354;SDS011;10835;50.148;19.760;2024-02-26T08:11:51;10.07;;;5.13;;
21354;SDS011;10835;50.148;19.760;2024-02-26T08:14:20;12.15;;;4.50;;
21354;SDS011;10835;50.148;19.760;2024-02-26T08:16:48;8.45;;;4.43;;
21354;SDS011;10835;50.148;19.760;2024-02-26T08:19:16;9.40;;;3.97;;
21354;SDS011;10835;50.148;19.760;2024-02-26T08:21:47;10.02;;;4.07;;
21354;SDS011;10835;50.148;19.760;2024-02-26T08:24:15;8.10;;;3.80;;
21354;SDS011;10835;50.148;19.760;2024-02-26T08:26:44;5.68;;;3.40;;
21354;SDS011;10835;50.148;19.760;2024-02-26T08:29:13;10.32;;;3.95;;
21354;SDS011;10835;50.148;19.760;2024-02-26T08:31:41;8.05;;;4.50;;
21354;SDS011;10835;50.148;19.760;2024-02-26T08:34:10;8.95;;;5.20;;
21354;SDS011;10835;50.148;19.760;2024-02-26T08:36:39;9.57;;;4.00;;
21354;SDS011;10835;50.148;19.760;2024-02-26T08:39:09;11.93;;;5.10;;
21354;SDS011;10835;50.148;19.760;2024-02-26T08:41:37;10.73;;;4.63;;
21354;SDS011;10835;50.148;19.760;2024-02-26T08:44:06;10.18;;;4.53;;
21354;SDS011;10835;50.148;19.760;2024-02-26T08:46:34;19.40;;;6.40;;
21354;SDS011;10835;50.148;19.760;2024-02-26T08:49:03;8.80;;;4.18;;
21354;SDS011;10835;50.148;19.760;2024-02-26T08:51:31;6.60;;;3.50;;
21354;SDS011;10835;50.148;19.760;2024-02-26T08:54:00;6.70;;;3.17;;
21354;SDS011;10835;50.148;19.760;2024-02-26T08:56:30;7.43;;;3.20;;
21354;SDS011;10835;50.148;19.760;2024-02-26T08:58:58;8.13;;;3.55;;
21354;SDS011;10835;50.148;19.760;2024-02-26T09:01:30;4.55;;;2.78;;
21354;SDS011;10835;50.148;19.760;2024-02-26T09:03:59;2.33;;;1.70;;
21354;SDS011;10835;50.148;19.760;2024-02-26T09:06:27;1.92;;;1.20;;
21354;SDS011;10835;50.148;19.760;2024-02-26T09:08:56;3.17;;;1.73;;
21354;SDS011;10835;50.148;19.760;2024-02-26T09:11:27;2.72;;;1.50;;
21354;SDS011;10835;50.148;19.760;2024-02-26T09:13:58;2.35;;;1.10;;
21354;SDS011;10835;50.148;19.760;2024-02-26T09:16:27;1.98;;;1.17;;
21354;SDS011;10835;50.148;19.760;2024-02-26T09:18:55;0.93;;;0.73;;
21354;SDS011;10835;50.148;19.760;2024-02-26T09:21:24;2.97;;;0.80;;
21354;SDS011;10835;50.148;19.760;2024-02-26T09:23:53;2.25;;;1.05;;
21354;SDS011;10835;50.148;19.760;2024-02-26T09:26:22;1.48;;;1.00;;
21354;SDS011;10835;50.148;19.760;2024-02-26T09:28:52;1.92;;;1.00;;
21354;SDS011;10835;50.148;19.760;2024-02-26T09:31:20;1.63;;;1.05;;
21354;SDS011;10835;50.148;19.760;2024-02-26T09:33:48;2.03;;;1.08;;
21354;SDS011;10835;50.148;19.760;2024-02-26T09:36:17;1.25;;;1.00;;
21354;SDS011;10835;50.148;19.760;2024-02-26T09:38:45;2.10;;;1.33;;
21354;SDS011;10835;50.148;19.760;2024-02-26T09:41:27;3.00;;;1.35;;
21354;SDS011;10835;50.148;19.760;2024-02-26T09:43:57;1.90;;;1.20;;
21354;SDS011;10835;50.148;19.760;2024-02-26T09:46:27;6.63;;;1.00;;
21354;SDS011;10835;50.148;19.760;2024-02-26T09:48:56;1.50;;;1.10;;
21354;SDS011;10835;50.148;19.760;2024-02-26T09:51:25;0.88;;;0.82;;
21354;SDS011;10835;50.148;19.760;2024-02-26T09:53:54;1.90;;;1.05;;
21354;SDS011;10835;50.148;19.760;2024-02-26T09:56:24;1.20;;;0.88;;
21354;SDS011;10835;50.148;19.760;2024-02-26T09:58:54;1.98;;;1.35;;
21354;SDS011;10835;50.148;19.760;2024-02-26T10:01:25;6.15;;;2.08;;
21354;SDS011;10835;50.148;19.760;2024-02-26T10:03:55;3.38;;;1.60;;
21354;SDS011;10835;50.148;19.760;2024-02-26T10:06:25;2.45;;;1.50;;
21354;SDS011;10835;50.148;19.760;2024-02-26T10:08:55;3.42;;;1.50;;
21354;SDS011;10835;50.148;19.760;2024-02-26T10:11:25;2.70;;;1.25;;
21354;SDS011;10835;50.148;19.760;2024-02-26T10:13:55;1.20;;;1.10;;
21354;SDS011;10835;50.148;19.760;2024-02-26T10:16:25;1.60;;;1.40;;
21354;SDS011;10835;50.148;19.760;2024-02-26T10:18:53;2.90;;;1.20;;
21354;SDS011;10835;50.148;19.760;2024-02-26T10:21:26;2.28;;;1.05;;
21354;SDS011;10835;50.148;19.760;2024-02-26T10:23:55;1.63;;;0.93;;
21354;SDS011;10835;50.148;19.760;2024-02-26T10:26:23;1.25;;;1.15;;
21354;SDS011;10835;50.148;19.760;2024-02-26T10:28:51;3.97;;;2.00;;
21354;SDS011;10835;50.148;19.760;2024-02-26T10:31:21;3.10;;;2.25;;
21354;SDS011;10835;50.148;19.760;2024-02-26T10:33:51;5.68;;;2.40;;
21354;SDS011;10835;50.148;19.760;2024-02-26T10:36:28;3.33;;;2.05;;
21354;SDS011;10835;50.148;19.760;2024-02-26T10:39:15;5.10;;;2.42;;
21354;SDS011;10835;50.148;19.760;2024-02-26T10:41:44;3.70;;;2.13;;
21354;SDS011;10835;50.148;19.760;2024-02-26T10:44:13;3.92;;;2.10;;
21354;SDS011;10835;50.148;19.760;2024-02-26T10:46:46;2.40;;;1.55;;
21354;SDS011;10835;50.148;19.760;2024-02-26T10:49:17;3.95;;;1.90;;
21354;SDS011;10835;50.148;19.760;2024-02-26T10:51:50;2.83;;;1.67;;
21354;SDS011;10835;50.148;19.760;2024-02-26T10:54:24;5.72;;;1.55;;
21354;SDS011;10835;50.148;19.760;2024-02-26T10:56:55;3.42;;;1.95;;
21354;SDS011;10835;50.148;19.760;2024-02-26T10:59:26;3.00;;;1.70;;
21354;SDS011;10835;50.148;19.760;2024-02-26T11:01:54;3.33;;;2.15;;
21354;SDS011;10835;50.148;19.760;2024-02-26T11:04:25;2.85;;;1.65;;
21354;SDS011;10835;50.148;19.760;2024-02-26T11:06:54;3.00;;;1.90;;
21354;SDS011;10835;50.148;19.760;2024-02-26T11:09:25;1.73;;;1.48;;
21354;SDS011;10835;50.148;19.760;2024-02-26T11:11:55;2.20;;;1.60;;
21354;SDS011;10835;50.148;19.760;2024-02-26T11:14:26;2.08;;;1.30;;
21354;SDS011;10835;50.148;19.760;2024-02-26T11:16:57;3.75;;;1.55;;
21354;SDS011;10835;50.148;19.760;2024-02-26T11:19:29;3.15;;;1.08;;
21354;SDS011;10835;50.148;19.760;2024-02-26T11:22:04;1.42;;;1.33;;
21354;SDS011;10835;50.148;19.760;2024-02-26T11:24:46;5.32;;;1.50;;
21354;SDS011;10835;50.148;19.760;2024-02-26T11:27:16;2.88;;;1.40;;
21354;SDS011;10835;50.148;19.760;2024-02-26T11:29:47;2.53;;;1.33;;
21354;SDS011;10835;50.148;19.760;2024-02-26T11:32:18;1.90;;;1.08;;
21354;SDS011;10835;50.148;19.760;2024-02-26T11:34:49;1.70;;;1.48;;
21354;SDS011;10835;50.148;19.760;2024-02-26T11:37:18;2.40;;;1.30;;
21354;SDS011;10835;50.148;19.760;2024-02-26T11:39:48;3.05;;;1.42;;
21354;SDS011;10835;50.148;19.760;2024-02-26T11:42:22;6.45;;;1.63;;
21354;SDS011;10835;50.148;19.760;2024-02-26T11:44:52;2.30;;;1.35;;
21354;SDS011;10835;50.148;19.760;2024-02-26T11:47:22;1.42;;;1.17;;
21354;SDS011;10835;50.148;19.760;2024-02-26T11:49:52;2.55;;;1.30;;
21354;SDS011;10835;50.148;19.760;2024-02-26T11:52:21;2.75;;;1.60;;
21354;SDS011;10835;50.148;19.760;2024-02-26T11:54:50;3.03;;;1.35;;
21354;SDS011;10835;50.148;19.760;2024-02-26T11:57:21;3.42;;;1.33;;
21354;SDS011;10835;50.148;19.760;2024-02-26T11:59:54;3.70;;;1.30;;
21354;SDS011;10835;50.148;19.760;2024-02-26T12:02:40;4.28;;;1.40;;
21354;SDS011;10835;50.148;19.760;2024-02-26T12:05:14;1.48;;;1.10;;
21354;SDS011;10835;50.148;19.760;2024-02-26T12:07:45;2.45;;;1.65;;
21354;SDS011;10835;50.148;19.760;2024-02-26T12:10:23;1.33;;;1.00;;
21354;SDS011;10835;50.148;19.760;2024-02-26T12:12:58;1.48;;;0.93;;
21354;SDS011;10835;50.148;19.760;2024-02-26T12:15:31;3.00;;;1.40;;
21354;SDS011;10835;50.148;19.760;2024-02-26T12:18:01;1.30;;;1.10;;
21354;SDS011;10835;50.148;19.760;2024-02-26T12:20:32;2.63;;;1.15;;
21354;SDS011;10835;50.148;19.760;2024-02-26T12:23:02;4.47;;;1.48;;
21354;SDS011;10835;50.148;19.760;2024-02-26T12:25:31;2.83;;;1.23;;
21354;SDS011;10835;50.148;19.760;2024-02-26T12:28:00;2.45;;;1.20;;
21354;SDS011;10835;50.148;19.760;2024-02-26T12:30:29;1.98;;;1.10;;
21354;SDS011;10835;50.148;19.760;2024-02-26T12:33:00;1.85;;;1.30;;
21354;SDS011;10835;50.148;19.760;2024-02-26T12:35:29;1.15;;;0.95;;
21354;SDS011;10835;50.148;19.760;2024-02-26T12:37:59;2.53;;;1.30;;
21354;SDS011;10835;50.148;19.760;2024-02-26T12:40:28;7.55;;;1.40;;
21354;SDS011;10835;50.148;19.760;2024-02-26T12:42:56;3.25;;;1.20;;
21354;SDS011;10835;50.148;19.760;2024-02-26T12:45:25;2.15;;;1.45;;
21354;SDS011;10835;50.148;19.760;2024-02-26T12:47:55;2.28;;;1.60;;
21354;SDS011;10835;50.148;19.760;2024-02-26T12:50:24;2.50;;;1.30;;
21354;SDS011;10835;50.148;19.760;2024-02-26T12:52:54;3.17;;;1.25;;
21354;SDS011;10835;50.148;19.760;2024-02-26T12:55:23;10.50;;;1.50;;
21354;SDS011;10835;50.148;19.760;2024-02-26T12:57:52;1.05;;;0.90;;
21354;SDS011;10835;50.148;19.760;2024-02-26T13:00:21;2.05;;;1.23;;
21354;SDS011;10835;50.148;19.760;2024-02-26T13:02:52;2.03;;;1.35;;
21354;SDS011;10835;50.148;19.760;2024-02-26T13:05:23;2.38;;;1.30;;
21354;SDS011;10835;50.148;19.760;2024-02-26T13:07:54;3.65;;;1.42;;
21354;SDS011;10835;50.148;19.760;2024-02-26T13:10:23;2.08;;;1.40;;
21354;SDS011;10835;50.148;19.760;2024-02-26T13:12:52;1.40;;;1.10;;
21354;SDS011;10835;50.148;19.760;2024-02-26T13:15:21;1.65;;;1.38;;
21354;SDS011;10835;50.148;19.760;2024-02-26T13:17:50;1.30;;;1.20;;
21354;SDS011;10835;50.148;19.760;2024-02-26T13:20:26;1.70;;;1.23;;
21354;SDS011;10835;50.148;19.760;2024-02-26T13:23:01;2.03;;;1.63;;
21354;SDS011;10835;50.148;19.760;2024-02-26T13:25:30;4.35;;;1.88;;
21354;SDS011;10835;50.148;19.760;2024-02-26T13:28:07;2.33;;;1.60;;
21354;SDS011;10835;50.148;19.760;2024-02-26T13:30:36;1.92;;;1.60;;
21354;SDS011;10835;50.148;19.760;2024-02-26T13:33:08;2.38;;;1.52;;
21354;SDS011;10835;50.148;19.760;2024-02-26T13:35:37;1.77;;;1.30;;
21354;SDS011;10835;50.148;19.760;2024-02-26T13:38:08;1.83;;;1.27;;
21354;SDS011;10835;50.148;19.760;2024-02-26T13:40:38;8.15;;;1.27;;
21354;SDS011;10835;50.148;19.760;2024-02-26T13:43:07;2.30;;;1.60;;
21354;SDS011;10835;50.148;19.760;2024-02-26T13:45:35;3.67;;;1.98;;
21354;SDS011;10835;50.148;19.760;2024-02-26T13:48:05;3.72;;;2.35;;
21354;SDS011;10835;50.148;19.760;2024-02-26T13:50:37;4.57;;;2.35;;
21354;SDS011;10835;50.148;19.760;2024-02-26T13:53:06;4.30;;;2.08;;
21354;SDS011;10835;50.148;19.760;2024-02-26T13:55:36;3.03;;;2.00;;
21354;SDS011;10835;50.148;19.760;2024-02-26T13:58:06;5.18;;;2.10;;
21354;SDS011;10835;50.148;19.760;2024-02-26T14:00:34;3.35;;;1.90;;
21354;SDS011;10835;50.148;19.760;2024-02-26T14:03:03;2.42;;;1.88;;
21354;SDS011;10835;50.148;19.760;2024-02-26T14:05:32;2.45;;;1.92;;
21354;SDS011;10835;50.148;19.760;2024-02-26T14:08:01;2.40;;;2.00;;
21354;SDS011;10835;50.148;19.760;2024-02-26T14:10:32;4.65;;;2.53;;
21354;SDS011;10835;50.148;19.760;2024-02-26T14:13:00;5.40;;;2.58;;
21354;SDS011;10835;50.148;19.760;2024-02-26T14:15:29;6.07;;;2.65;;
21354;SDS011;10835;50.148;19.760;2024-02-26T14:18:00;2.85;;;1.98;;
21354;SDS011;10835;50.148;19.760;2024-02-26T14:20:31;2.47;;;1.75;;
21354;SDS011;10835;50.148;19.760;2024-02-26T14:22:59;4.50;;;1.85;;
21354;SDS011;10835;50.148;19.760;2024-02-26T14:25:27;4.63;;;2.50;;
21354;SDS011;10835;50.148;19.760;2024-02-26T14:27:58;7.35;;;2.70;;
21354;SDS011;10835;50.148;19.760;2024-02-26T14:30:27;5.70;;;2.40;;
21354;SDS011;10835;50.148;19.760;2024-02-26T14:32:55;6.72;;;3.00;;
21354;SDS011;10835;50.148;19.760;2024-02-26T14:35:24;7.03;;;2.53;;
21354;SDS011;10835;50.148;19.760;2024-02-26T14:37:53;4.75;;;1.80;;
21354;SDS011;10835;50.148;19.760;2024-02-26T14:40:26;2.85;;;1.95;;
21354;SDS011;10835;50.148;19.760;2024-02-26T14:42:55;2.50;;;1.80;;
21354;SDS011;10835;50.148;19.760;2024-02-26T14:45:25;3.28;;;1.95;;
21354;SDS011;10835;50.148;19.760;2024-02-26T14:47:53;3.78;;;2.05;;
21354;SDS011;10835;50.148;19.760;2024-02-26T14:50:22;3.55;;;1.77;;
21354;SDS011;10835;50.148;19.760;2024-02-26T14:52:50;4.10;;;1.90;;
21354;SDS011;10835;50.148;19.760;2024-02-26T14:55:19;2.83;;;1.60;;
21354;SDS011;10835;50.148;19.760;2024-02-26T14:57:48;3.35;;;1.55;;
21354;SDS011;10835;50.148;19.760;2024-02-26T15:00:16;2.33;;;1.48;;
21354;SDS011;10835;50.148;19.760;2024-02-26T15:02:46;4.22;;;2.10;;
21354;SDS011;10835;50.148;19.760;2024-02-26T15:05:15;2.53;;;2.33;;
21354;SDS011;10835;50.148;19.760;2024-02-26T15:07:44;4.22;;;2.08;;
21354;SDS011;10835;50.148;19.760;2024-02-26T15:10:12;5.85;;;2.25;;
21354;SDS011;10835;50.148;19.760;2024-02-26T15:12:41;3.55;;;1.92;;
21354;SDS011;10835;50.148;19.760;2024-02-26T15:15:09;6.70;;;2.30;;
21354;SDS011;10835;50.148;19.760;2024-02-26T15:17:38;4.93;;;2.40;;
21354;SDS011;10835;50.148;19.760;2024-02-26T15:20:09;4.97;;;2.60;;
21354;SDS011;10835;50.148;19.760;2024-02-26T15:22:38;5.95;;;2.28;;
21354;SDS011;10835;50.148;19.760;2024-02-26T15:25:07;4.32;;;2.63;;
21354;SDS011;10835;50.148;19.760;2024-02-26T15:27:39;6.30;;;2.70;;
21354;SDS011;10835;50.148;19.760;2024-02-26T15:30:08;5.78;;;3.15;;
21354;SDS011;10835;50.148;19.760;2024-02-26T15:32:37;6.82;;;2.90;;
21354;SDS011;10835;50.148;19.760;2024-02-26T15:35:05;5.75;;;3.05;;
21354;SDS011;10835;50.148;19.760;2024-02-26T15:37:36;6.03;;;3.05;;
21354;SDS011;10835;50.148;19.760;2024-02-26T15:40:05;7.50;;;2.95;;
21354;SDS011;10835;50.148;19.760;2024-02-26T15:42:34;6.97;;;2.95;;
21354;SDS011;10835;50.148;19.760;2024-02-26T15:45:04;8.75;;;3.30;;
21354;SDS011;10835;50.148;19.760;2024-02-26T15:47:34;7.40;;;3.55;;
21354;SDS011;10835;50.148;19.760;2024-02-26T15:50:03;5.28;;;3.35;;